CSCL Oceania — VRBI2 — position and weather

sailwx.info

Track history (hours):
 
Tides and Currents Weather Stations Pressure Air Temp Water Temp Dewpoint Dewpoint Depression Visibility Wind Speed Wind Dir Waves Ship Positions

CSCL Oceania

Last reported at 2014-Aug-27 18:00 UTC. Time now 2014-Aug-28 03:20 UTC.
Position S 27°54' W 036°42'.

Length 334 m; beam 42.8 m; draft 14.5 m.

Type: Cargo ship. MMSI: 477020300.

Wind from 270 at 16 knots

Waves 2.0 meters (7 feet), 2 second period

Barometer 1012.6 mb
Air temperature 21.0 ° C
Visibility: greater than 10.8 NM
Dewpoint 16.1 ° C
Water temperature 20.0 ° C

Date/timePositionNaut miles runAvg speedWind from/ knotsBaromVisibWave heightAir tempDewpointWater temp
2014-Aug-27 18:00S 27°54' W 036°42'9716.2 270 / 161012.610.8 2.021.016.120.0
2014-Aug-27 12:00S 27°18' W 038°24'10016.7 260 / 161014.610.8 1.022.018.920.0
2014-Aug-27 06:00S 26°36' W 040°06'19716.4 270 / 181013.6 2.2 23.021.5
2014-Aug-26 18:00S 25°24' W 043°30'16816.1 130 / 141012.610.8 1.026.023.125.0
2014-Aug-26 07:32S 24°17' W 046°20'1615.8
2014-Aug-26 06:33S 24°02' W 046°21'6 5.8
2014-Aug-26 05:33S 23°56' W 046°19'1 0.7
2014-Aug-26 04:33S 23°56' W 046°19'0 0.0
2014-Aug-26 03:33S 23°56' W 046°19'0 0.0
2014-Aug-26 02:33S 23°56' W 046°19'0 0.0
2014-Aug-26 01:33S 23°56' W 046°19'0 0.0
2014-Aug-26 00:32S 23°56' W 046°19'0 0.0
2014-Aug-25 23:33S 23°56' W 046°19'0 0.0
2014-Aug-25 22:33S 23°56' W 046°19'0 0.0
2014-Aug-25 21:32S 23°56' W 046°19'0 0.0
2014-Aug-25 20:33S 23°56' W 046°19'0 0.0
2014-Aug-25 19:31S 23°56' W 046°19'0 0.0
2014-Aug-25 18:34S 23°56' W 046°19'0 0.0
2014-Aug-25 17:33S 23°56' W 046°19'0 0.0
2014-Aug-25 16:33S 23°56' W 046°19'0 0.0
2014-Aug-25 15:33S 23°56' W 046°19'0 0.0
2014-Aug-25 14:33S 23°56' W 046°19'0 0.0
2014-Aug-25 13:33S 23°56' W 046°19'0 0.0
2014-Aug-25 12:33S 23°56' W 046°19'0 0.0
2014-Aug-25 11:33S 23°56' W 046°19'0 0.0
2014-Aug-25 10:32S 23°56' W 046°19'0 0.0
2014-Aug-25 09:33S 23°56' W 046°19'0 0.0
2014-Aug-25 08:33S 23°56' W 046°19'0 0.0
2014-Aug-25 07:33S 23°56' W 046°19'0 0.0
2014-Aug-25 06:34S 23°56' W 046°19'0 0.0
2014-Aug-25 05:33S 23°56' W 046°19'0 0.0
2014-Aug-25 04:33S 23°56' W 046°19'0 0.0
2014-Aug-25 03:32S 23°56' W 046°19'0 0.0
2014-Aug-25 02:33S 23°56' W 046°19'0 0.0
2014-Aug-25 01:29S 23°56' W 046°19'0 0.0
2014-Aug-25 00:25S 23°56' W 046°19'0 0.0
2014-Aug-24 23:33S 23°56' W 046°19'0 0.0
2014-Aug-24 22:33S 23°56' W 046°19'0 0.0
2014-Aug-24 21:33S 23°56' W 046°19'0 0.0
2014-Aug-24 20:34S 23°56' W 046°19'0 0.0
2014-Aug-24 19:32S 23°56' W 046°19'0 0.0
2014-Aug-24 18:30S 23°56' W 046°19'2 2.0
2014-Aug-24 17:33S 23°57' W 046°18'7 7.3
2014-Aug-24 16:33S 24°04' W 046°22'4 3.8
2014-Aug-24 15:25S 24°08' W 046°21'0 0.1
2014-Aug-24 11:06S 24°08' W 046°20'0 0.0
2014-Aug-24 09:30S 24°08' W 046°20'5 4.8
2014-Aug-24 08:32S 24°12' W 046°23'  
Track history (hours):
 
Tides and Currents Weather Stations Pressure Air Temp Water Temp Dewpoint Dewpoint Depression Visibility Wind Speed Wind Dir Waves Ship Positions

CSCL Oceania

Last reported at 2014-Aug-27 18:00 UTC. Time now 2014-Aug-28 03:20 UTC.
Position S 27°54' W 036°42'.

Length 334 m; beam 42.8 m; draft 14.5 m.

Type: Cargo ship. MMSI: 477020300.

Wind from 270 at 16 knots

Waves 2.0 meters (7 feet), 2 second period

Barometer 1012.6 mb
Air temperature 21.0 ° C
Visibility: greater than 10.8 NM
Dewpoint 16.1 ° C
Water temperature 20.0 ° C

Date/timePositionNaut miles runAvg speedWind from/ knotsBaromVisibWave heightAir tempDewpointWater temp
2014-Aug-27 18:00S 27°54' W 036°42'9716.2 270 / 161012.610.8 2.021.016.120.0
2014-Aug-27 12:00S 27°18' W 038°24'10016.7 260 / 161014.610.8 1.022.018.920.0
2014-Aug-27 06:00S 26°36' W 040°06'19716.4 270 / 181013.6 2.2 23.021.5
2014-Aug-26 18:00S 25°24' W 043°30'16816.1 130 / 141012.610.8 1.026.023.125.0
2014-Aug-26 07:32S 24°17' W 046°20'1615.8
2014-Aug-26 06:33S 24°02' W 046°21'6 5.8
2014-Aug-26 05:33S 23°56' W 046°19'1 0.7
2014-Aug-26 04:33S 23°56' W 046°19'0 0.0
2014-Aug-26 03:33S 23°56' W 046°19'0 0.0
2014-Aug-26 02:33S 23°56' W 046°19'0 0.0
2014-Aug-26 01:33S 23°56' W 046°19'0 0.0
2014-Aug-26 00:32S 23°56' W 046°19'0 0.0
2014-Aug-25 23:33S 23°56' W 046°19'0 0.0
2014-Aug-25 22:33S 23°56' W 046°19'0 0.0
2014-Aug-25 21:32S 23°56' W 046°19'0 0.0
2014-Aug-25 20:33S 23°56' W 046°19'0 0.0
2014-Aug-25 19:31S 23°56' W 046°19'0 0.0
2014-Aug-25 18:34S 23°56' W 046°19'0 0.0
2014-Aug-25 17:33S 23°56' W 046°19'0 0.0
2014-Aug-25 16:33S 23°56' W 046°19'0 0.0
2014-Aug-25 15:33S 23°56' W 046°19'0 0.0
2014-Aug-25 14:33S 23°56' W 046°19'0 0.0
2014-Aug-25 13:33S 23°56' W 046°19'0 0.0
2014-Aug-25 12:33S 23°56' W 046°19'0 0.0
2014-Aug-25 11:33S 23°56' W 046°19'0 0.0
2014-Aug-25 10:32S 23°56' W 046°19'0 0.0
2014-Aug-25 09:33S 23°56' W 046°19'0 0.0
2014-Aug-25 08:33S 23°56' W 046°19'0 0.0
2014-Aug-25 07:33S 23°56' W 046°19'0 0.0
2014-Aug-25 06:34S 23°56' W 046°19'0 0.0
2014-Aug-25 05:33S 23°56' W 046°19'0 0.0
2014-Aug-25 04:33S 23°56' W 046°19'0 0.0
2014-Aug-25 03:32S 23°56' W 046°19'0 0.0
2014-Aug-25 02:33S 23°56' W 046°19'0 0.0
2014-Aug-25 01:29S 23°56' W 046°19'0 0.0
2014-Aug-25 00:25S 23°56' W 046°19'0 0.0
2014-Aug-24 23:33S 23°56' W 046°19'0 0.0
2014-Aug-24 22:33S 23°56' W 046°19'0 0.0
2014-Aug-24 21:33S 23°56' W 046°19'0 0.0
2014-Aug-24 20:34S 23°56' W 046°19'0 0.0
2014-Aug-24 19:32S 23°56' W 046°19'0 0.0
2014-Aug-24 18:30S 23°56' W 046°19'2 2.0
2014-Aug-24 17:33S 23°57' W 046°18'7 7.3
2014-Aug-24 16:33S 24°04' W 046°22'4 3.8
2014-Aug-24 15:25S 24°08' W 046°21'0 0.1
2014-Aug-24 11:06S 24°08' W 046°20'0 0.0
2014-Aug-24 09:30S 24°08' W 046°20'5 4.8
2014-Aug-24 08:32S 24°12' W 046°23'  

Dump ship's entire track history